createdAt,value
2022-11-29T00:01:36.584Z,94868.59
2022-11-29T00:04:05.111Z,94857.63
2022-11-29T00:06:34.782Z,94867.69
2022-11-29T00:09:07.298Z,94859.59
2022-11-29T00:11:54.217Z,94861.97
2022-11-29T00:14:23.569Z,94859.13
2022-11-29T00:16:52.682Z,94880.56
2022-11-29T00:19:20.616Z,94889.88
2022-11-29T00:21:48.817Z,94896.13
2022-11-29T00:24:18.078Z,94898.75
2022-11-29T00:26:45.924Z,94896.19
2022-11-29T00:29:14.451Z,94893.44
2022-11-29T00:31:42.878Z,94899.69
2022-11-29T00:34:11.986Z,94895.13
2022-11-29T00:36:40.127Z,94896.78
2022-11-29T00:39:11.621Z,94900.44
2022-11-29T00:41:41.336Z,94890.53
2022-11-29T00:44:09.459Z,94893.66
2022-11-29T00:46:37.473Z,94896.19
2022-11-29T00:49:06.316Z,94896.91
2022-11-29T00:51:34.222Z,94886.56
2022-11-29T00:54:02.022Z,94890.34
2022-11-29T00:56:29.852Z,94889.34
2022-11-29T00:58:59.136Z,94890.47
2022-11-29T01:01:27.171Z,94894.00
2022-11-29T01:03:55.005Z,94898.50
2022-11-29T01:06:22.843Z,94898.47
2022-11-29T01:08:50.721Z,94894.88
2022-11-29T01:11:21.101Z,94885.97
2022-11-29T01:13:50.112Z,94892.81
2022-11-29T01:16:19.338Z,94896.06
2022-11-29T01:18:47.731Z,94896.31
2022-11-29T01:21:18.012Z,94894.56
2022-11-29T01:23:46.131Z,94892.72
2022-11-29T01:26:16.452Z,94894.63
2022-11-29T01:28:47.036Z,94895.00
2022-11-29T01:31:20.702Z,94899.31
2022-11-29T01:33:50.370Z,94894.41
2022-11-29T01:36:18.300Z,94894.03
2022-11-29T01:38:46.132Z,94891.13
2022-11-29T01:41:17.550Z,94886.72
2022-11-29T01:44:01.380Z,94886.22
2022-11-29T01:46:31.077Z,94889.44
2022-11-29T01:49:04.481Z,94890.66
2022-11-29T01:51:34.611Z,94885.47
2022-11-29T01:54:02.812Z,94889.34
2022-11-29T01:56:33.492Z,94893.69
2022-11-29T01:59:03.272Z,94892.53
2022-11-29T02:01:31.155Z,94883.84
2022-11-29T02:04:00.914Z,94879.38
2022-11-29T02:06:30.175Z,94881.25
2022-11-29T02:08:58.064Z,94879.47
2022-11-29T02:12:04.111Z,94881.53
2022-11-29T02:15:03.483Z,94881.44
2022-11-29T02:17:38.250Z,94873.78
2022-11-29T02:20:39.173Z,94879.69
2022-11-29T02:23:25.742Z,94857.97
2022-11-29T02:26:12.701Z,94876.94
2022-11-29T02:28:59.060Z,94879.97
2022-11-29T02:31:56.262Z,94868.59
2022-11-29T02:34:52.589Z,94876.88
2022-11-29T02:37:39.602Z,94875.31
2022-11-29T02:40:39.849Z,94886.53
2022-11-29T02:43:40.998Z,94874.06
2022-11-29T02:46:25.267Z,94875.66
2022-11-29T02:49:01.782Z,94886.47
2022-11-29T02:51:40.285Z,94877.13
2022-11-29T02:54:17.406Z,94868.91
2022-11-29T02:56:52.257Z,94886.69
2022-11-29T02:59:35.150Z,94887.13
2022-11-29T03:02:10.325Z,94881.75
2022-11-29T03:04:46.537Z,94883.19
2022-11-29T03:07:24.897Z,94885.13
2022-11-29T03:10:01.727Z,94874.53
2022-11-29T03:12:34.881Z,94892.59
2022-11-29T03:15:15.023Z,94897.75
2022-11-29T03:17:56.421Z,94898.31
2022-11-29T03:20:34.747Z,94899.94
2022-11-29T03:23:14.814Z,94900.00
2022-11-29T03:25:47.441Z,94894.22
2022-11-29T03:28:19.850Z,94904.63
2022-11-29T03:30:54.511Z,94902.84
2022-11-29T03:33:28.207Z,94905.03
2022-11-29T03:36:05.595Z,94901.69
2022-11-29T03:38:40.819Z,94899.41
2022-11-29T03:41:18.686Z,94909.50
2022-11-29T03:43:51.476Z,94913.81
2022-11-29T03:46:27.649Z,94909.31
2022-11-29T03:49:01.480Z,94904.41
2022-11-29T03:51:39.727Z,94909.69
2022-11-29T03:54:13.974Z,94902.50
2022-11-29T03:56:42.383Z,94904.25
2022-11-29T03:59:20.165Z,94906.25
2022-11-29T04:02:15.970Z,94903.84
2022-11-29T04:05:04.995Z,94903.09
2022-11-29T04:07:46.325Z,94907.69
2022-11-29T04:10:33.686Z,94901.25
2022-11-29T04:13:37.093Z,94905.22
2022-11-29T04:16:33.666Z,94911.00
2022-11-29T04:19:25.606Z,94911.91
2022-11-29T04:22:16.382Z,94899.13
2022-11-29T04:25:14.394Z,94899.66
2022-11-29T04:28:04.860Z,94897.72
2022-11-29T04:30:43.953Z,94902.06
2022-11-29T04:33:47.574Z,94882.88
2022-11-29T04:36:49.852Z,94895.41
2022-11-29T04:39:42.811Z,94894.38
2022-11-29T04:42:29.945Z,94903.34
2022-11-29T04:45:20.124Z,94905.41
2022-11-29T04:47:59.915Z,94897.88
2022-11-29T04:50:43.163Z,94900.13
2022-11-29T04:53:37.683Z,94904.56
2022-11-29T04:56:18.804Z,94904.22
2022-11-29T04:58:55.966Z,94909.09
2022-11-29T05:01:36.459Z,94915.50
2022-11-29T05:04:14.011Z,94918.47
2022-11-29T05:06:49.478Z,94915.94
2022-11-29T05:09:26.110Z,94909.59
2022-11-29T05:12:04.441Z,94909.16
2022-11-29T05:14:41.755Z,94909.59
2022-11-29T05:17:32.141Z,94919.91
2022-11-29T05:20:26.030Z,94916.53
2022-11-29T05:23:17.933Z,94920.09
2022-11-29T05:25:51.844Z,94920.50
2022-11-29T05:28:27.114Z,94924.00
2022-11-29T05:31:07.610Z,94920.91
2022-11-29T05:33:55.018Z,94924.19
2022-11-29T05:36:34.182Z,94936.63
2022-11-29T05:39:16.749Z,94933.88
2022-11-29T05:42:01.565Z,94933.09
2022-11-29T05:44:37.420Z,94939.16
2022-11-29T05:47:08.211Z,94935.19
2022-11-29T05:49:45.534Z,94934.41
2022-11-29T05:52:24.557Z,94934.16
2022-11-29T05:55:06.894Z,94936.50
2022-11-29T05:57:42.770Z,94943.69
2022-11-29T06:00:13.001Z,94946.22
2022-11-29T06:02:49.339Z,94943.19
2022-11-29T06:05:29.954Z,94939.69
2022-11-29T06:08:04.347Z,94944.00
2022-11-29T06:10:35.095Z,94946.38
2022-11-29T06:13:18.272Z,94947.72
2022-11-29T06:16:18.053Z,94942.84
2022-11-29T06:19:12.086Z,94946.22
2022-11-29T06:21:55.857Z,94957.28
2022-11-29T06:24:44.600Z,94956.34
2022-11-29T06:27:31.704Z,94951.69
2022-11-29T06:30:09.318Z,94953.00
2022-11-29T06:32:47.445Z,94959.56
2022-11-29T06:35:34.952Z,94951.25
2022-11-29T06:38:10.104Z,94957.59
2022-11-29T06:40:38.598Z,94948.13
2022-11-29T06:43:06.881Z,94954.38
2022-11-29T06:45:35.496Z,94958.03
2022-11-29T06:48:06.073Z,94950.59
2022-11-29T06:50:48.907Z,94944.44
2022-11-29T06:53:26.447Z,94957.84
2022-11-29T06:56:01.286Z,94957.56
2022-11-29T06:58:43.936Z,94955.97
2022-11-29T07:01:20.567Z,94957.78
2022-11-29T07:04:09.702Z,94967.91
2022-11-29T07:06:37.739Z,94978.88
2022-11-29T07:09:14.323Z,94978.16
2022-11-29T07:11:43.471Z,94973.91
2022-11-29T07:14:11.863Z,94979.00
2022-11-29T07:16:53.185Z,94976.25
2022-11-29T07:19:36.287Z,94973.59
2022-11-29T07:22:19.881Z,94976.69
2022-11-29T07:25:00.598Z,94987.84
2022-11-29T07:27:37.091Z,94985.91
2022-11-29T07:30:12.071Z,94984.19
2022-11-29T07:33:00.471Z,94982.31
2022-11-29T07:35:39.143Z,94984.66
2022-11-29T07:38:14.991Z,94991.97
2022-11-29T07:40:51.271Z,94988.47
2022-11-29T07:43:28.732Z,94984.78
2022-11-29T07:45:57.580Z,94986.78
2022-11-29T07:48:26.834Z,94991.28
2022-11-29T07:50:55.331Z,94987.66
2022-11-29T07:53:24.441Z,94980.47
2022-11-29T07:55:54.097Z,94994.38
2022-11-29T07:58:21.950Z,94992.09
2022-11-29T08:00:49.867Z,94981.84
2022-11-29T08:03:17.696Z,94993.41
2022-11-29T08:05:47.145Z,94996.69
2022-11-29T08:08:15.187Z,94997.41
2022-11-29T08:10:43.002Z,94997.94
2022-11-29T08:13:12.168Z,95010.59
2022-11-29T08:15:45.843Z,95013.41
2022-11-29T08:18:13.819Z,95005.66
2022-11-29T08:20:42.223Z,95012.63
2022-11-29T08:23:12.452Z,95010.81
2022-11-29T08:25:40.859Z,95012.59
2022-11-29T08:28:08.638Z,95016.03
2022-11-29T08:30:37.788Z,95011.59
2022-11-29T08:33:05.667Z,95010.81
2022-11-29T08:35:35.484Z,95006.84
2022-11-29T08:38:03.815Z,95006.59
2022-11-29T08:40:31.696Z,95007.59
2022-11-29T08:42:59.557Z,95012.16
2022-11-29T08:45:27.346Z,95021.75
2022-11-29T08:47:56.540Z,95015.22
2022-11-29T08:50:25.572Z,95017.75
2022-11-29T08:53:10.835Z,95021.94
2022-11-29T08:55:40.667Z,95017.72
2022-11-29T08:58:17.172Z,95010.97
2022-11-29T09:00:47.084Z,95017.59
2022-11-29T09:03:32.496Z,95022.75
2022-11-29T09:06:10.450Z,95023.09
2022-11-29T09:08:40.282Z,95025.03
2022-11-29T09:11:09.453Z,95027.84
2022-11-29T09:13:38.632Z,95027.84
2022-11-29T09:16:08.927Z,95042.97
2022-11-29T09:18:38.380Z,95027.78
2022-11-29T09:21:07.882Z,95024.25
2022-11-29T09:23:36.074Z,95036.88
2022-11-29T09:26:05.236Z,95031.84
2022-11-29T09:28:34.283Z,95037.41
2022-11-29T09:31:07.106Z,95040.81
2022-11-29T09:33:36.172Z,95045.50
2022-11-29T09:36:04.977Z,95046.22
2022-11-29T09:38:32.761Z,95045.81
2022-11-29T09:41:07.857Z,95050.44
2022-11-29T09:43:48.229Z,95043.22
2022-11-29T09:46:24.876Z,95036.81
2022-11-29T09:49:13.184Z,95031.19
2022-11-29T09:51:53.233Z,95025.91
2022-11-29T09:54:28.794Z,95025.81
2022-11-29T09:56:58.051Z,95022.38
2022-11-29T09:59:29.767Z,95024.56
2022-11-29T10:02:06.074Z,95021.28
2022-11-29T10:04:41.162Z,95021.72
2022-11-29T10:07:19.491Z,95017.31
2022-11-29T10:09:51.451Z,95016.63
2022-11-29T10:12:24.445Z,95011.75
2022-11-29T10:14:58.071Z,95008.88
2022-11-29T10:17:38.072Z,95010.56
2022-11-29T10:20:12.371Z,95003.34
2022-11-29T10:22:49.297Z,95010.13
2022-11-29T10:25:24.033Z,95007.41
2022-11-29T10:27:52.220Z,95005.94
2022-11-29T10:30:20.142Z,95004.97
2022-11-29T10:32:53.157Z,95004.84
2022-11-29T10:35:21.807Z,95001.19
2022-11-29T10:38:22.585Z,95002.13
2022-11-29T10:40:45.201Z,94994.66
2022-11-29T10:43:13.059Z,94998.94
2022-11-29T10:45:45.944Z,94992.78
2022-11-29T10:48:17.922Z,95002.22
2022-11-29T10:50:48.651Z,94987.53
2022-11-29T10:53:19.225Z,94992.28
2022-11-29T10:55:50.475Z,94996.34
2022-11-29T10:58:24.849Z,94995.22
2022-11-29T11:00:57.568Z,94996.91
2022-11-29T11:03:34.629Z,94995.63
2022-11-29T11:06:07.351Z,94998.25
2022-11-29T11:08:36.497Z,95002.28
2022-11-29T11:11:06.130Z,94988.94
2022-11-29T11:13:34.090Z,94999.19
2022-11-29T11:16:12.724Z,95001.91
2022-11-29T11:18:42.339Z,95000.56
2022-11-29T11:21:12.838Z,95002.69
2022-11-29T11:23:46.534Z,95001.84
2022-11-29T11:26:15.800Z,95000.78
2022-11-29T11:28:49.893Z,95008.38
2022-11-29T11:31:27.982Z,95004.84
2022-11-29T11:33:57.384Z,95006.91
2022-11-29T11:36:27.279Z,95003.44
2022-11-29T11:38:56.735Z,95011.94
2022-11-29T11:41:48.540Z,95008.00
2022-11-29T11:44:47.928Z,95014.78
2022-11-29T11:47:19.200Z,95012.91
2022-11-29T11:49:55.751Z,95009.84
2022-11-29T11:52:26.127Z,95009.59
2022-11-29T11:54:56.587Z,95009.16
2022-11-29T11:57:26.554Z,95003.34
2022-11-29T11:59:55.969Z,95008.88
2022-11-29T12:02:29.251Z,95004.78
2022-11-29T12:05:02.064Z,95016.44
2022-11-29T12:08:06.843Z,95014.00
2022-11-29T12:10:27.897Z,95012.97
2022-11-29T12:12:57.699Z,95007.38
2022-11-29T12:15:30.493Z,95005.03
2022-11-29T12:18:02.951Z,95007.28
2022-11-29T12:20:35.052Z,95012.41
2022-11-29T12:23:24.436Z,95021.63
2022-11-29T12:25:56.656Z,95023.53
2022-11-29T12:28:28.893Z,95023.44
2022-11-29T12:31:06.913Z,95018.56
2022-11-29T12:33:43.961Z,95027.00
2022-11-29T12:36:30.005Z,95027.44
2022-11-29T12:39:12.151Z,95026.31
2022-11-29T12:41:53.780Z,95024.22
2022-11-29T12:44:33.128Z,95026.72
2022-11-29T12:47:34.709Z,95024.78
2022-11-29T12:50:08.915Z,95025.91
2022-11-29T12:52:45.134Z,95026.53
2022-11-29T12:55:23.235Z,95039.34
2022-11-29T12:58:00.052Z,95029.84
2022-11-29T13:00:35.270Z,95028.69
2022-11-29T13:03:13.351Z,95024.63
2022-11-29T13:05:50.525Z,95023.03
2022-11-29T13:08:42.953Z,95031.94
2022-11-29T13:11:17.303Z,95032.28
2022-11-29T13:13:50.000Z,95036.28
2022-11-29T13:16:32.795Z,95039.28
2022-11-29T13:19:08.264Z,95039.78
2022-11-29T13:21:41.467Z,95035.28
2022-11-29T13:24:19.410Z,95041.88
2022-11-29T13:26:47.340Z,95040.59
2022-11-29T13:29:18.025Z,95035.31
2022-11-29T13:31:48.781Z,95037.41
2022-11-29T13:34:22.930Z,95045.34
2022-11-29T13:37:04.738Z,95045.50
2022-11-29T13:39:52.786Z,95042.50
2022-11-29T13:42:27.670Z,95048.50
2022-11-29T13:45:04.008Z,95043.81
2022-11-29T13:47:31.834Z,95042.28
2022-11-29T13:50:02.491Z,95055.78
2022-11-29T13:52:41.485Z,95055.47
2022-11-29T13:55:32.216Z,95051.91
2022-11-29T13:58:22.250Z,95059.72
2022-11-29T14:00:51.829Z,95059.25
2022-11-29T14:03:30.623Z,95056.75
2022-11-29T14:06:09.740Z,95044.97
2022-11-29T14:09:10.767Z,95044.63
2022-11-29T14:11:34.709Z,95049.72
2022-11-29T14:14:08.052Z,95047.97
2022-11-29T14:16:39.348Z,95053.38
2022-11-29T14:19:22.021Z,95050.66
2022-11-29T14:22:19.095Z,95055.94
2022-11-29T14:25:11.885Z,95059.91
2022-11-29T14:28:03.042Z,95067.72
2022-11-29T14:30:47.071Z,95061.34
2022-11-29T14:33:35.674Z,95067.13
2022-11-29T14:36:33.203Z,95070.53
2022-11-29T14:39:14.272Z,95079.13
2022-11-29T14:41:56.230Z,95080.75
2022-11-29T14:44:28.843Z,95056.19
2022-11-29T14:47:06.005Z,95067.16
2022-11-29T14:49:44.326Z,95065.66
2022-11-29T14:52:23.519Z,95076.63
2022-11-29T14:55:00.968Z,95070.16
2022-11-29T14:58:08.764Z,95074.38
2022-11-29T15:00:56.113Z,95072.31
2022-11-29T15:03:32.041Z,95066.59
2022-11-29T15:06:08.791Z,95070.88
2022-11-29T15:08:41.516Z,95073.50
2022-11-29T15:11:18.930Z,95084.56
2022-11-29T15:13:54.757Z,95071.53
2022-11-29T15:16:37.981Z,95088.41
2022-11-29T15:19:22.312Z,95077.00
2022-11-29T15:22:03.723Z,95078.22
2022-11-29T15:24:52.115Z,95079.47
2022-11-29T15:27:20.788Z,95082.50
2022-11-29T15:29:49.108Z,95090.78
2022-11-29T15:32:23.994Z,95084.94
2022-11-29T15:34:54.060Z,95095.59
2022-11-29T15:37:40.109Z,95085.28
2022-11-29T15:40:14.317Z,95097.66
2022-11-29T15:42:44.637Z,95088.31
2022-11-29T15:45:34.441Z,95101.34
2022-11-29T15:48:18.046Z,95103.72
2022-11-29T15:50:53.165Z,95103.41
2022-11-29T15:53:24.804Z,95113.63
2022-11-29T15:55:55.356Z,95114.59
2022-11-29T15:58:24.114Z,95116.66
2022-11-29T16:00:53.175Z,95111.91
2022-11-29T16:03:28.954Z,95117.63
2022-11-29T16:06:07.382Z,95118.88
2022-11-29T16:08:37.786Z,95119.84
2022-11-29T16:11:07.908Z,95120.81
2022-11-29T16:13:39.897Z,95111.28
2022-11-29T16:16:16.024Z,95118.59
2022-11-29T16:18:48.016Z,95122.88
2022-11-29T16:21:27.250Z,95118.59
2022-11-29T16:23:55.723Z,95111.47
2022-11-29T16:26:28.705Z,95116.25
2022-11-29T16:28:58.051Z,95121.16
2022-11-29T16:31:33.139Z,95136.69
2022-11-29T16:34:10.126Z,95126.41
2022-11-29T16:36:38.380Z,95127.84
2022-11-29T16:39:09.094Z,95124.81
2022-11-29T16:41:38.847Z,95116.09
2022-11-29T16:44:28.464Z,95116.88
2022-11-29T16:47:12.372Z,95110.22
2022-11-29T16:49:41.757Z,95103.88
2022-11-29T16:52:25.159Z,95106.75
2022-11-29T16:54:53.382Z,95109.13
2022-11-29T16:57:22.092Z,95119.47
2022-11-29T16:59:50.597Z,95124.66
2022-11-29T17:02:18.719Z,95131.97
2022-11-29T17:04:48.174Z,95127.69
2022-11-29T17:07:22.613Z,95127.69
2022-11-29T17:09:50.710Z,95130.88
2022-11-29T17:12:19.520Z,95136.44
2022-11-29T17:14:47.479Z,95135.47
2022-11-29T17:17:17.465Z,95140.22
2022-11-29T17:19:47.224Z,95140.22
2022-11-29T17:22:15.662Z,95144.19
2022-11-29T17:24:47.909Z,95141.66
2022-11-29T17:27:17.999Z,95138.19
2022-11-29T17:29:45.938Z,95148.00
2022-11-29T17:32:13.691Z,95154.69
2022-11-29T17:34:41.668Z,95150.88
2022-11-29T17:37:11.115Z,95160.25
2022-11-29T17:39:39.307Z,95146.75
2022-11-29T17:42:07.309Z,95160.75
2022-11-29T17:44:35.620Z,95161.84
2022-11-29T17:47:03.435Z,95161.69
2022-11-29T17:49:31.256Z,95161.34
2022-11-29T17:51:59.507Z,95164.69
2022-11-29T17:54:29.450Z,95167.38
2022-11-29T17:56:57.529Z,95182.63
2022-11-29T17:59:25.530Z,95178.66
2022-11-29T18:01:53.532Z,95180.56
2022-11-29T18:04:21.799Z,95184.41
2022-11-29T18:06:50.751Z,95179.47
2022-11-29T18:09:20.234Z,95181.69
2022-11-29T18:11:50.863Z,95190.91
2022-11-29T18:14:20.700Z,95181.38
2022-11-29T18:16:48.833Z,95192.16
2022-11-29T18:19:19.117Z,95192.47
2022-11-29T18:21:47.427Z,95199.47
2022-11-29T18:24:27.802Z,95211.69
2022-11-29T18:27:32.354Z,95211.22
2022-11-29T18:30:05.444Z,95216.31
2022-11-29T18:32:51.662Z,95206.31
2022-11-29T18:35:37.802Z,95216.75
2022-11-29T18:38:16.967Z,95208.84
2022-11-29T18:41:37.747Z,95206.13
2022-11-29T18:44:09.709Z,95215.81
2022-11-29T18:46:38.909Z,95211.69
2022-11-29T18:49:08.536Z,95210.59
2022-11-29T18:51:37.911Z,95222.50
2022-11-29T18:54:06.664Z,95218.69
2022-11-29T18:56:36.194Z,95215.19
2022-11-29T18:59:09.646Z,95207.22
2022-11-29T19:01:41.202Z,95210.88
2022-11-29T19:04:11.379Z,95209.94
2022-11-29T19:06:40.783Z,95213.44
2022-11-29T19:09:12.573Z,95210.84
2022-11-29T19:11:40.725Z,95213.41
2022-11-29T19:14:12.790Z,95210.38
2022-11-29T19:16:43.157Z,95219.28
2022-11-29T19:19:11.780Z,95229.13
2022-11-29T19:21:40.728Z,95226.25
2022-11-29T19:24:14.065Z,95219.59
2022-11-29T19:26:44.590Z,95230.09
2022-11-29T19:29:15.335Z,95206.69
2022-11-29T19:31:43.793Z,95218.78
2022-11-29T19:34:11.874Z,95226.88
2022-11-29T19:36:43.402Z,95220.69
2022-11-29T19:39:13.198Z,95240.22
2022-11-29T19:41:43.889Z,95233.22
2022-11-29T19:44:12.566Z,95231.47
2022-11-29T19:46:44.208Z,95233.66
2022-11-29T19:49:12.986Z,95240.19
2022-11-29T19:51:43.907Z,95244.31
2022-11-29T19:54:12.213Z,95236.88
2022-11-29T19:56:40.561Z,95235.44
2022-11-29T19:59:08.688Z,95241.97
2022-11-29T20:01:41.339Z,95219.69
2022-11-29T20:04:13.646Z,95238.47
2022-11-29T20:06:42.738Z,95236.25
2022-11-29T20:09:11.266Z,95244.81
2022-11-29T20:11:39.635Z,95236.88
2022-11-29T20:14:08.899Z,95246.72
2022-11-29T20:16:38.929Z,95258.50
2022-11-29T20:19:11.793Z,95248.66
2022-11-29T20:21:44.170Z,95243.22
2022-11-29T20:24:14.466Z,95250.22
2022-11-29T20:26:44.332Z,95254.00
2022-11-29T20:29:14.198Z,95258.16
2022-11-29T20:31:49.595Z,95263.53
2022-11-29T20:34:21.644Z,95262.47
2022-11-29T20:37:13.575Z,95264.34
2022-11-29T20:39:48.007Z,95267.53
2022-11-29T20:42:36.746Z,95275.91
2022-11-29T20:45:08.445Z,95274.34
2022-11-29T20:47:45.796Z,95277.66
2022-11-29T20:50:23.245Z,95270.03
2022-11-29T20:53:02.603Z,95269.69
2022-11-29T20:55:32.181Z,95278.25
2022-11-29T20:58:03.114Z,95283.00
2022-11-29T21:00:31.348Z,95284.00
2022-11-29T21:02:59.336Z,95281.72
2022-11-29T21:05:29.045Z,95278.41
2022-11-29T21:08:00.544Z,95282.66
2022-11-29T21:10:28.794Z,95268.09
2022-11-29T21:12:57.259Z,95283.38
2022-11-29T21:15:25.831Z,95291.59
2022-11-29T21:17:54.856Z,95291.06
2022-11-29T21:20:28.674Z,95289.31
2022-11-29T21:23:04.736Z,95291.25
2022-11-29T21:25:46.018Z,95289.47
2022-11-29T21:28:16.211Z,95277.88
2022-11-29T21:30:45.188Z,95274.13
2022-11-29T21:33:14.677Z,95284.72
2022-11-29T21:35:44.600Z,95281.53
2022-11-29T21:38:18.579Z,95291.06
2022-11-29T21:40:46.503Z,95290.09
2022-11-29T21:43:17.720Z,95292.34
2022-11-29T21:45:48.470Z,95298.53
2022-11-29T21:48:34.017Z,95293.25
2022-11-29T21:51:03.613Z,95290.25
2022-11-29T21:53:32.301Z,95305.66
2022-11-29T21:56:02.849Z,95285.19
2022-11-29T21:58:33.404Z,95296.63
2022-11-29T22:01:10.605Z,95298.81
2022-11-29T22:03:39.405Z,95296.03
2022-11-29T22:06:10.915Z,95286.50
2022-11-29T22:08:41.121Z,95298.78
2022-11-29T22:11:11.556Z,95294.50
2022-11-29T22:14:01.889Z,95298.34
2022-11-29T22:16:30.920Z,95300.88
2022-11-29T22:18:58.879Z,95297.88
2022-11-29T22:21:28.035Z,95290.88
2022-11-29T22:23:55.854Z,95281.94
2022-11-29T22:26:23.622Z,95292.22
2022-11-29T22:28:51.450Z,95292.09
2022-11-29T22:31:19.476Z,95293.81
2022-11-29T22:33:47.426Z,95288.59
2022-11-29T22:36:15.457Z,95287.78
2022-11-29T22:38:44.711Z,95288.22
2022-11-29T22:41:14.992Z,95288.88
2022-11-29T22:43:43.737Z,95287.00
2022-11-29T22:46:14.058Z,95283.00
2022-11-29T22:48:43.808Z,95279.91
2022-11-29T22:51:13.725Z,95283.44
2022-11-29T22:53:43.189Z,95286.06
2022-11-29T22:56:13.872Z,95286.19
2022-11-29T22:58:41.855Z,95291.56
2022-11-29T23:01:13.941Z,95295.69
2022-11-29T23:03:43.339Z,95292.94
2022-11-29T23:06:13.527Z,95299.97
2022-11-29T23:08:42.788Z,95292.22
2022-11-29T23:11:14.682Z,95297.94
2022-11-29T23:13:43.432Z,95287.13
2022-11-29T23:16:13.545Z,95299.88
2022-11-29T23:18:42.289Z,95288.16
2022-11-29T23:21:12.096Z,95284.59
2022-11-29T23:23:39.906Z,95295.38
2022-11-29T23:26:08.924Z,95312.38
2022-11-29T23:28:38.450Z,95319.84
2022-11-29T23:31:06.292Z,95321.13
2022-11-29T23:33:34.033Z,95311.09
2022-11-29T23:36:02.876Z,95317.16
2022-11-29T23:38:31.018Z,95324.69
2022-11-29T23:40:59.628Z,95313.81
2022-11-29T23:43:30.485Z,95320.78
2022-11-29T23:45:59.922Z,95330.53
2022-11-29T23:48:28.744Z,95323.06
2022-11-29T23:50:56.533Z,95321.19
2022-11-29T23:53:24.310Z,95327.22
2022-11-29T23:55:57.330Z,95328.16
2022-11-29T23:58:25.692Z,95325.78
